sensor_id;sensor_type;location;lat;lon;timestamp;pressure;altitude;pressure_sealevel;temperature;humidity
56944;BME280;42848;42.524;12.052;2023-05-25T00:00:14;96549.59;;;17.47;100.00
56944;BME280;42848;42.524;12.052;2023-05-25T00:02:40;96536.91;;;17.39;100.00
56944;BME280;42848;42.524;12.052;2023-05-25T00:05:11;96532.31;;;17.20;100.00
56944;BME280;42848;42.524;12.052;2023-05-25T00:07:37;96541.31;;;17.20;100.00
56944;BME280;42848;42.524;12.052;2023-05-25T00:10:04;96535.03;;;17.20;100.00
56944;BME280;42848;42.524;12.052;2023-05-25T00:12:31;96530.03;;;17.25;100.00
56944;BME280;42848;42.524;12.052;2023-05-25T00:14:58;96520.16;;;17.21;100.00
56944;BME280;42848;42.524;12.052;2023-05-25T00:17:23;96521.00;;;17.25;100.00
56944;BME280;42848;42.524;12.052;2023-05-25T00:19:49;96529.13;;;17.44;100.00
56944;BME280;42848;42.524;12.052;2023-05-25T00:22:15;96525.03;;;17.31;100.00
56944;BME280;42848;42.524;12.052;2023-05-25T00:24:41;96525.81;;;17.31;100.00
56944;BME280;42848;42.524;12.052;2023-05-25T00:27:06;96535.03;;;17.20;100.00
56944;BME280;42848;42.524;12.052;2023-05-25T00:29:34;96532.78;;;17.25;100.00
56944;BME280;42848;42.524;12.052;2023-05-25T00:32:01;96540.81;;;17.38;100.00
56944;BME280;42848;42.524;12.052;2023-05-25T00:34:26;96538.50;;;17.40;100.00
56944;BME280;42848;42.524;12.052;2023-05-25T00:36:53;96528.69;;;17.16;100.00
56944;BME280;42848;42.524;12.052;2023-05-25T00:39:19;96537.16;;;17.07;100.00
56944;BME280;42848;42.524;12.052;2023-05-25T00:41:46;96533.38;;;17.15;100.00
56944;BME280;42848;42.524;12.052;2023-05-25T00:44:13;96531.81;;;17.14;100.00
56944;BME280;42848;42.524;12.052;2023-05-25T00:46:51;96533.72;;;17.10;100.00
56944;BME280;42848;42.524;12.052;2023-05-25T00:49:18;96534.84;;;17.09;100.00
56944;BME280;42848;42.524;12.052;2023-05-25T00:51:44;96535.38;;;17.18;100.00
56944;BME280;42848;42.524;12.052;2023-05-25T00:54:17;96529.31;;;17.28;100.00
56944;BME280;42848;42.524;12.052;2023-05-25T00:56:50;96525.81;;;17.09;100.00
56944;BME280;42848;42.524;12.052;2023-05-25T00:59:23;96532.59;;;17.15;100.00
56944;BME280;42848;42.524;12.052;2023-05-25T01:01:52;96529.13;;;17.18;100.00
56944;BME280;42848;42.524;12.052;2023-05-25T01:04:20;96527.78;;;17.08;100.00
56944;BME280;42848;42.524;12.052;2023-05-25T01:06:49;96528.41;;;16.98;100.00
56944;BME280;42848;42.524;12.052;2023-05-25T01:09:18;96533.16;;;17.01;100.00
56944;BME280;42848;42.524;12.052;2023-05-25T01:11:48;96524.50;;;16.99;100.00
56944;BME280;42848;42.524;12.052;2023-05-25T01:14:17;96520.09;;;17.17;100.00
56944;BME280;42848;42.524;12.052;2023-05-25T01:16:45;96518.91;;;16.92;100.00
56944;BME280;42848;42.524;12.052;2023-05-25T01:19:11;96527.59;;;17.20;100.00
56944;BME280;42848;42.524;12.052;2023-05-25T01:21:43;96525.50;;;17.10;100.00
56944;BME280;42848;42.524;12.052;2023-05-25T01:24:25;96519.78;;;16.99;100.00
56944;BME280;42848;42.524;12.052;2023-05-25T01:27:12;96526.69;;;16.90;100.00
56944;BME280;42848;42.524;12.052;2023-05-25T01:29:42;96526.06;;;17.00;100.00
56944;BME280;42848;42.524;12.052;2023-05-25T01:32:10;96529.13;;;16.95;100.00
56944;BME280;42848;42.524;12.052;2023-05-25T01:34:38;96529.81;;;16.88;100.00
56944;BME280;42848;42.524;12.052;2023-05-25T01:37:05;96520.72;;;16.84;100.00
56944;BME280;42848;42.524;12.052;2023-05-25T01:39:31;96530.84;;;17.03;100.00
56944;BME280;42848;42.524;12.052;2023-05-25T01:41:56;96525.09;;;16.89;100.00
56944;BME280;42848;42.524;12.052;2023-05-25T01:44:22;96525.09;;;16.89;100.00
56944;BME280;42848;42.524;12.052;2023-05-25T01:52:25;96525.59;;;16.71;100.00
56944;BME280;42848;42.524;12.052;2023-05-25T01:54:59;96527.72;;;16.62;100.00
56944;BME280;42848;42.524;12.052;2023-05-25T01:57:28;96527.59;;;16.97;100.00
56944;BME280;42848;42.524;12.052;2023-05-25T01:59:55;96528.78;;;16.73;100.00
56944;BME280;42848;42.524;12.052;2023-05-25T02:02:25;96523.66;;;16.53;100.00
56944;BME280;42848;42.524;12.052;2023-05-25T02:04:52;96530.41;;;16.59;100.00
56944;BME280;42848;42.524;12.052;2023-05-25T02:07:19;96531.19;;;16.78;100.00
56944;BME280;42848;42.524;12.052;2023-05-25T02:09:45;96529.47;;;16.70;100.00
56944;BME280;42848;42.524;12.052;2023-05-25T02:12:11;96529.56;;;16.74;100.00
56944;BME280;42848;42.524;12.052;2023-05-25T02:14:37;96528.78;;;16.73;100.00
56944;BME280;42848;42.524;12.052;2023-05-25T02:17:02;96536.41;;;16.64;100.00
56944;BME280;42848;42.524;12.052;2023-05-25T02:19:29;96531.25;;;16.82;100.00
56944;BME280;42848;42.524;12.052;2023-05-25T02:21:55;96535.22;;;16.85;100.00
56944;BME280;42848;42.524;12.052;2023-05-25T02:24:22;96542.75;;;16.68;100.00
56944;BME280;42848;42.524;12.052;2023-05-25T02:26:49;96536.47;;;16.68;100.00
56944;BME280;42848;42.524;12.052;2023-05-25T02:29:16;96538.13;;;16.72;100.00
56944;BME280;42848;42.524;12.052;2023-05-25T02:31:42;96538.91;;;16.73;100.00
56944;BME280;42848;42.524;12.052;2023-05-25T02:34:07;96536.41;;;16.45;100.00
56944;BME280;42848;42.524;12.052;2023-05-25T02:36:33;96524.78;;;16.71;100.00
56944;BME280;42848;42.524;12.052;2023-05-25T02:38:59;96526.03;;;16.35;100.00
56944;BME280;42848;42.524;12.052;2023-05-25T02:41:25;96528.94;;;16.42;100.00
56944;BME280;42848;42.524;12.052;2023-05-25T02:43:52;96526.16;;;16.61;100.00
56944;BME280;42848;42.524;12.052;2023-05-25T02:46:19;96538.31;;;16.64;100.00
56944;BME280;42848;42.524;12.052;2023-05-25T02:48:45;96532.59;;;16.49;100.00
56944;BME280;42848;42.524;12.052;2023-05-25T02:51:11;96533.53;;;16.57;100.00
56944;BME280;42848;42.524;12.052;2023-05-25T02:53:37;96524.75;;;16.48;100.00
56944;BME280;42848;42.524;12.052;2023-05-25T02:56:03;96536.41;;;16.64;100.00
56944;BME280;42848;42.524;12.052;2023-05-25T02:58:35;96525.59;;;16.52;100.00
56944;BME280;42848;42.524;12.052;2023-05-25T03:01:02;96536.31;;;16.18;100.00
56944;BME280;42848;42.524;12.052;2023-05-25T03:03:29;96532.22;;;16.51;100.00
56944;BME280;42848;42.524;12.052;2023-05-25T03:05:56;96540.75;;;16.46;100.00
56944;BME280;42848;42.524;12.052;2023-05-25T03:08:22;96540.63;;;16.39;100.00
56944;BME280;42848;42.524;12.052;2023-05-25T03:10:48;96538.31;;;16.41;100.00
56944;BME280;42848;42.524;12.052;2023-05-25T03:13:14;96537.31;;;16.30;100.00
56944;BME280;42848;42.524;12.052;2023-05-25T03:15:39;96536.78;;;16.43;100.00
56944;BME280;42848;42.524;12.052;2023-05-25T03:18:05;96542.34;;;16.47;100.00
56944;BME280;42848;42.524;12.052;2023-05-25T03:20:31;96536.41;;;16.45;100.00
56944;BME280;42848;42.524;12.052;2023-05-25T03:23:00;96532.28;;;16.55;100.00
56944;BME280;42848;42.524;12.052;2023-05-25T03:25:25;96535.75;;;16.71;100.00
56944;BME280;42848;42.524;12.052;2023-05-25T03:27:52;96537.53;;;16.63;100.00
56944;BME280;42848;42.524;12.052;2023-05-25T03:30:21;96533.53;;;16.57;100.00
56944;BME280;42848;42.524;12.052;2023-05-25T03:32:47;96543.47;;;16.65;100.00
56944;BME280;42848;42.524;12.052;2023-05-25T03:35:13;96544.41;;;16.54;100.00
56944;BME280;42848;42.524;12.052;2023-05-25T03:37:38;96540.28;;;16.63;100.00
56944;BME280;42848;42.524;12.052;2023-05-25T03:40:05;96547.09;;;16.50;100.00
56944;BME280;42848;42.524;12.052;2023-05-25T03:42:31;96547.50;;;16.52;100.00
56944;BME280;42848;42.524;12.052;2023-05-25T03:44:56;96547.09;;;16.50;100.00
56944;BME280;42848;42.524;12.052;2023-05-25T03:47:22;96549.53;;;16.55;100.00
56944;BME280;42848;42.524;12.052;2023-05-25T03:49:47;96553.06;;;16.56;100.00
56944;BME280;42848;42.524;12.052;2023-05-25T03:52:13;96562.53;;;16.39;100.00
56944;BME280;42848;42.524;12.052;2023-05-25T03:54:38;96560.19;;;16.60;100.00
56944;BME280;42848;42.524;12.052;2023-05-25T03:57:04;96561.22;;;16.52;100.00
56944;BME280;42848;42.524;12.052;2023-05-25T03:59:30;96562.31;;;16.47;100.00
56944;BME280;42848;42.524;12.052;2023-05-25T04:01:56;96570.38;;;16.40;100.00
56944;BME280;42848;42.524;12.052;2023-05-25T04:04:21;96565.84;;;16.48;100.00
56944;BME280;42848;42.524;12.052;2023-05-25T04:06:47;96571.19;;;16.41;100.00
56944;BME280;42848;42.524;12.052;2023-05-25T04:09:16;96570.00;;;16.61;100.00
56944;BME280;42848;42.524;12.052;2023-05-25T04:11:45;96571.47;;;16.55;100.00
56944;BME280;42848;42.524;12.052;2023-05-25T04:14:11;96571.00;;;16.53;100.00
56944;BME280;42848;42.524;12.052;2023-05-25T04:16:36;96571.16;;;16.60;100.00
56944;BME280;42848;42.524;12.052;2023-05-25T04:19:04;96577.97;;;16.47;100.00
56944;BME280;42848;42.524;12.052;2023-05-25T04:21:30;96580.13;;;16.57;100.00
56944;BME280;42848;42.524;12.052;2023-05-25T04:23:56;96586.03;;;16.59;100.00
56944;BME280;42848;42.524;12.052;2023-05-25T04:26:22;96585.88;;;16.71;100.00
56944;BME280;42848;42.524;12.052;2023-05-25T04:28:51;96591.13;;;16.61;100.00
56944;BME280;42848;42.524;12.052;2023-05-25T04:31:19;96589.59;;;16.63;100.00
56944;BME280;42848;42.524;12.052;2023-05-25T04:33:45;96585.00;;;16.67;100.00
56944;BME280;42848;42.524;12.052;2023-05-25T04:36:11;96589.66;;;16.83;100.00
56944;BME280;42848;42.524;12.052;2023-05-25T04:38:38;96595.97;;;16.87;100.00
56944;BME280;42848;42.524;12.052;2023-05-25T04:41:04;96597.72;;;16.75;100.00
56944;BME280;42848;42.524;12.052;2023-05-25T04:43:31;96592.13;;;16.91;100.00
56944;BME280;42848;42.524;12.052;2023-05-25T04:45:58;96595.97;;;16.67;100.00
56944;BME280;42848;42.524;12.052;2023-05-25T04:48:25;96592.25;;;16.37;100.00
56944;BME280;42848;42.524;12.052;2023-05-25T04:50:57;96595.19;;;16.28;100.00
56944;BME280;42848;42.524;12.052;2023-05-25T04:53:22;96597.41;;;16.61;100.00
56944;BME280;42848;42.524;12.052;2023-05-25T04:55:48;96594.84;;;16.68;100.00
56944;BME280;42848;42.524;12.052;2023-05-25T04:58:14;96587.94;;;16.97;100.00
56944;BME280;42848;42.524;12.052;2023-05-25T05:00:40;96606.91;;;17.06;100.00
56944;BME280;42848;42.524;12.052;2023-05-25T05:03:06;96598.66;;;17.06;100.00
56944;BME280;42848;42.524;12.052;2023-05-25T05:05:33;96594.47;;;17.12;100.00
56944;BME280;42848;42.524;12.052;2023-05-25T05:08:01;96611.16;;;17.03;100.00
56944;BME280;42848;42.524;12.052;2023-05-25T05:10:28;96604.28;;;16.71;100.00
56944;BME280;42848;42.524;12.052;2023-05-25T05:12:53;96614.81;;;16.69;100.00
56944;BME280;42848;42.524;12.052;2023-05-25T05:15:19;96610.47;;;16.87;100.00
56944;BME280;42848;42.524;12.052;2023-05-25T05:17:44;96609.69;;;16.87;100.00
56944;BME280;42848;42.524;12.052;2023-05-25T05:20:11;96616.84;;;17.14;100.00
56944;BME280;42848;42.524;12.052;2023-05-25T05:22:36;96615.50;;;17.27;100.00
56944;BME280;42848;42.524;12.052;2023-05-25T05:25:03;96611.16;;;17.26;100.00
56944;BME280;42848;42.524;12.052;2023-05-25T05:27:29;96620.06;;;17.43;100.00
56944;BME280;42848;42.524;12.052;2023-05-25T05:29:55;96623.59;;;17.43;100.00
56944;BME280;42848;42.524;12.052;2023-05-25T05:32:20;96622.41;;;17.41;100.00
56944;BME280;42848;42.524;12.052;2023-05-25T05:34:46;96623.97;;;17.19;100.00
56944;BME280;42848;42.524;12.052;2023-05-25T05:37:12;96624.63;;;17.35;100.00
56944;BME280;42848;42.524;12.052;2023-05-25T05:39:38;96629.91;;;17.21;100.00
56944;BME280;42848;42.524;12.052;2023-05-25T05:42:03;96631.38;;;17.38;100.00
56944;BME280;42848;42.524;12.052;2023-05-25T05:44:29;96634.59;;;17.66;100.00
56944;BME280;42848;42.524;12.052;2023-05-25T05:46:56;96631.53;;;17.71;100.00
56944;BME280;42848;42.524;12.052;2023-05-25T05:49:28;96637.16;;;17.78;100.00
56944;BME280;42848;42.524;12.052;2023-05-25T05:51:54;96640.66;;;17.75;100.00
56944;BME280;42848;42.524;12.052;2023-05-25T05:54:19;96636.41;;;17.81;100.00
56944;BME280;42848;42.524;12.052;2023-05-25T05:56:45;96627.50;;;17.65;100.00
56944;BME280;42848;42.524;12.052;2023-05-25T05:59:11;96631.09;;;17.69;100.00
56944;BME280;42848;42.524;12.052;2023-05-25T06:01:37;96639.81;;;17.52;100.00
56944;BME280;42848;42.524;12.052;2023-05-25T06:04:04;96635.44;;;17.70;100.00
56944;BME280;42848;42.524;12.052;2023-05-25T06:06:31;96636.00;;;17.56;100.00
56944;BME280;42848;42.524;12.052;2023-05-25T06:09:00;96644.88;;;17.73;100.00
56944;BME280;42848;42.524;12.052;2023-05-25T06:11:28;96645.91;;;17.87;100.00
56944;BME280;42848;42.524;12.052;2023-05-25T06:13:54;96646.81;;;17.95;100.00
56944;BME280;42848;42.524;12.052;2023-05-25T06:16:19;96644.34;;;17.86;100.00
56944;BME280;42848;42.524;12.052;2023-05-25T06:18:45;96645.16;;;17.90;100.00
56944;BME280;42848;42.524;12.052;2023-05-25T06:21:11;96645.16;;;17.90;100.00
56944;BME280;42848;42.524;12.052;2023-05-25T06:23:36;96653.91;;;17.96;100.00
56944;BME280;42848;42.524;12.052;2023-05-25T06:26:03;96647.28;;;18.01;100.00
56944;BME280;42848;42.524;12.052;2023-05-25T06:28:30;96649.50;;;18.18;100.00
56944;BME280;42848;42.524;12.052;2023-05-25T06:30:55;96650.25;;;18.15;100.00
56944;BME280;42848;42.524;12.052;2023-05-25T06:33:22;96648.25;;;18.12;100.00
56944;BME280;42848;42.524;12.052;2023-05-25T06:35:48;96658.25;;;18.27;100.00
56944;BME280;42848;42.524;12.052;2023-05-25T06:38:14;96660.69;;;18.32;100.00
56944;BME280;42848;42.524;12.052;2023-05-25T06:40:39;96659.03;;;18.24;100.00
56944;BME280;42848;42.524;12.052;2023-05-25T06:43:05;96668.53;;;18.30;100.00
56944;BME280;42848;42.524;12.052;2023-05-25T06:45:31;96662.94;;;18.53;100.00
56944;BME280;42848;42.524;12.052;2023-05-25T06:47:57;96673.03;;;18.72;100.00
56944;BME280;42848;42.524;12.052;2023-05-25T06:50:22;96671.13;;;18.76;100.00
56944;BME280;42848;42.524;12.052;2023-05-25T06:52:48;96668.38;;;18.76;100.00
56944;BME280;42848;42.524;12.052;2023-05-25T06:55:14;96671.31;;;18.64;100.00
56944;BME280;42848;42.524;12.052;2023-05-25T06:57:40;96669.88;;;18.70;100.00
56944;BME280;42848;42.524;12.052;2023-05-25T07:00:06;96668.66;;;18.67;100.00
56944;BME280;42848;42.524;12.052;2023-05-25T07:02:34;96678.13;;;18.70;100.00
56944;BME280;42848;42.524;12.052;2023-05-25T07:04:59;96687.19;;;18.74;100.00
56944;BME280;42848;42.524;12.052;2023-05-25T07:07:27;96680.88;;;18.70;100.00
56944;BME280;42848;42.524;12.052;2023-05-25T07:09:52;96691.06;;;18.69;100.00
56944;BME280;42848;42.524;12.052;2023-05-25T07:12:18;96677.03;;;18.78;100.00
56944;BME280;42848;42.524;12.052;2023-05-25T07:14:43;96676.19;;;18.74;100.00
56944;BME280;42848;42.524;12.052;2023-05-25T07:17:12;96678.00;;;18.93;100.00
56944;BME280;42848;42.524;12.052;2023-05-25T07:19:38;96684.44;;;19.04;100.00
56944;BME280;42848;42.524;12.052;2023-05-25T07:22:04;96682.91;;;19.10;100.00
56944;BME280;42848;42.524;12.052;2023-05-25T07:24:30;96682.13;;;19.10;100.00
56944;BME280;42848;42.524;12.052;2023-05-25T07:26:56;96686.03;;;19.09;100.00
56944;BME280;42848;42.524;12.052;2023-05-25T07:29:21;96678.16;;;19.07;100.00
56944;BME280;42848;42.524;12.052;2023-05-25T07:31:47;96684.63;;;19.22;100.00
56944;BME280;42848;42.524;12.052;2023-05-25T07:34:12;96676.00;;;19.27;100.00
56944;BME280;42848;42.524;12.052;2023-05-25T07:36:38;96672.69;;;19.11;100.00
56944;BME280;42848;42.524;12.052;2023-05-25T07:39:04;96678.84;;;19.34;100.00
56944;BME280;42848;42.524;12.052;2023-05-25T07:41:29;96679.25;;;19.36;100.00
56944;BME280;42848;42.524;12.052;2023-05-25T07:43:55;96682.38;;;19.31;100.00
56944;BME280;42848;42.524;12.052;2023-05-25T07:46:21;96676.91;;;19.38;100.00
56944;BME280;42848;42.524;12.052;2023-05-25T07:48:49;96684.03;;;19.39;100.00
56944;BME280;42848;42.524;12.052;2023-05-25T07:51:15;96682.09;;;19.43;100.00
56944;BME280;42848;42.524;12.052;2023-05-25T07:53:41;96690.81;;;19.52;100.00
56944;BME280;42848;42.524;12.052;2023-05-25T07:56:07;96694.50;;;19.64;100.00
56944;BME280;42848;42.524;12.052;2023-05-25T07:58:33;96691.44;;;19.72;100.00
56944;BME280;42848;42.524;12.052;2023-05-25T08:00:58;96693.75;;;19.67;100.00
56944;BME280;42848;42.524;12.052;2023-05-25T08:03:24;96695.25;;;19.57;100.00
56944;BME280;42848;42.524;12.052;2023-05-25T08:05:50;96697.69;;;19.69;100.00
56944;BME280;42848;42.524;12.052;2023-05-25T08:08:17;96696.91;;;19.69;100.00
56944;BME280;42848;42.524;12.052;2023-05-25T08:10:43;96697.78;;;19.80;100.00
56944;BME280;42848;42.524;12.052;2023-05-25T08:13:09;96698.97;;;19.79;100.00
56944;BME280;42848;42.524;12.052;2023-05-25T08:15:35;96702.53;;;19.83;100.00
56944;BME280;42848;42.524;12.052;2023-05-25T08:18:00;96701.44;;;19.91;100.00
56944;BME280;42848;42.524;12.052;2023-05-25T08:20:29;96701.03;;;19.89;100.00
56944;BME280;42848;42.524;12.052;2023-05-25T08:22:54;96703.66;;;20.23;100.00
56944;BME280;42848;42.524;12.052;2023-05-25T08:25:20;96700.78;;;20.08;100.00
56944;BME280;42848;42.524;12.052;2023-05-25T08:27:46;96705.06;;;20.02;100.00
56944;BME280;42848;42.524;12.052;2023-05-25T08:30:12;96703.97;;;20.14;100.00
56944;BME280;42848;42.524;12.052;2023-05-25T08:32:38;96698.84;;;20.12;100.00
56944;BME280;42848;42.524;12.052;2023-05-25T08:35:04;96705.56;;;20.18;100.00
56944;BME280;42848;42.524;12.052;2023-05-25T08:37:33;96709.19;;;20.30;100.00
56944;BME280;42848;42.524;12.052;2023-05-25T08:40:00;96709.91;;;20.16;100.00
56944;BME280;42848;42.524;12.052;2023-05-25T08:42:27;96707.59;;;20.29;100.00
56944;BME280;42848;42.524;12.052;2023-05-25T08:44:53;96702.81;;;20.15;100.00
56944;BME280;42848;42.524;12.052;2023-05-25T08:47:21;96706.72;;;20.14;100.00
56944;BME280;42848;42.524;12.052;2023-05-25T08:49:48;96702.88;;;20.26;100.00
56944;BME280;42848;42.524;12.052;2023-05-25T08:52:20;96708.84;;;20.31;100.00
56944;BME280;42848;42.524;12.052;2023-05-25T08:54:46;96711.16;;;20.29;100.00
56944;BME280;42848;42.524;12.052;2023-05-25T08:57:33;96715.94;;;20.36;100.00
56944;BME280;42848;42.524;12.052;2023-05-25T09:00:06;96707.81;;;20.54;100.00
56944;BME280;42848;42.524;12.052;2023-05-25T09:02:44;96719.06;;;20.31;100.00
56944;BME280;42848;42.524;12.052;2023-05-25T09:05:14;96718.88;;;20.61;100.00
56944;BME280;42848;42.524;12.052;2023-05-25T09:07:43;96720.81;;;20.57;100.00
56944;BME280;42848;42.524;12.052;2023-05-25T09:10:12;96724.09;;;20.77;100.00
56944;BME280;42848;42.524;12.052;2023-05-25T09:12:40;96720.56;;;20.80;100.00
56944;BME280;42848;42.524;12.052;2023-05-25T09:15:09;96723.72;;;20.82;100.00
56944;BME280;42848;42.524;12.052;2023-05-25T09:17:35;96729.97;;;20.71;100.00
56944;BME280;42848;42.524;12.052;2023-05-25T09:20:01;96730.03;;;20.79;100.00
56944;BME280;42848;42.524;12.052;2023-05-25T09:22:27;96719.81;;;20.86;100.00
56944;BME280;42848;42.524;12.052;2023-05-25T09:24:53;96728.09;;;20.90;100.00
56944;BME280;42848;42.524;12.052;2023-05-25T09:27:21;96722.66;;;21.08;100.00
56944;BME280;42848;42.524;12.052;2023-05-25T09:29:48;96729.41;;;21.17;100.00
56944;BME280;42848;42.524;12.052;2023-05-25T09:32:15;96723.41;;;21.01;100.00
56944;BME280;42848;42.524;12.052;2023-05-25T09:34:45;96727.03;;;21.12;100.00
56944;BME280;42848;42.524;12.052;2023-05-25T09:37:13;96725.38;;;21.00;100.00
56944;BME280;42848;42.524;12.052;2023-05-25T09:39:41;96731.09;;;21.40;100.00
56944;BME280;42848;42.524;12.052;2023-05-25T09:42:06;96727.81;;;21.16;100.00
56944;BME280;42848;42.524;12.052;2023-05-25T09:44:32;96734.88;;;21.10;100.00
56944;BME280;42848;42.524;12.052;2023-05-25T09:46:58;96732.56;;;21.19;100.00
56944;BME280;42848;42.524;12.052;2023-05-25T09:49:25;96733.75;;;21.18;100.00
56944;BME280;42848;42.524;12.052;2023-05-25T09:51:51;96732.56;;;21.16;100.00
56944;BME280;42848;42.524;12.052;2023-05-25T09:54:17;96737.31;;;21.22;100.00
56944;BME280;42848;42.524;12.052;2023-05-25T09:56:43;96734.66;;;21.44;100.00
56944;BME280;42848;42.524;12.052;2023-05-25T09:59:10;96740.53;;;21.32;100.00
56944;BME280;42848;42.524;12.052;2023-05-25T10:01:36;96739.38;;;21.43;100.00
56944;BME280;42848;42.524;12.052;2023-05-25T10:04:03;96727.97;;;21.55;100.00
56944;BME280;42848;42.524;12.052;2023-05-25T10:06:30;96733.84;;;21.40;100.00
56944;BME280;42848;42.524;12.052;2023-05-25T10:08:56;96734.25;;;21.42;100.00
56944;BME280;42848;42.524;12.052;2023-05-25T10:11:23;96739.00;;;21.41;100.00
56944;BME280;42848;42.524;12.052;2023-05-25T10:13:52;96733.84;;;21.47;100.00
56944;BME280;42848;42.524;12.052;2023-05-25T10:16:23;96732.69;;;21.51;100.00
56944;BME280;42848;42.524;12.052;2023-05-25T10:19:11;96729.59;;;21.81;100.00
56944;BME280;42848;42.524;12.052;2023-05-25T10:21:46;96726.00;;;21.63;100.00
56944;BME280;42848;42.524;12.052;2023-05-25T10:24:28;96738.28;;;21.76;100.00
56944;BME280;42848;42.524;12.052;2023-05-25T10:26:58;96731.13;;;21.61;100.00
56944;BME280;42848;42.524;12.052;2023-05-25T10:29:27;96730.38;;;21.82;100.00
56944;BME280;42848;42.524;12.052;2023-05-25T10:31:55;96730.38;;;22.00;100.00
56944;BME280;42848;42.524;12.052;2023-05-25T10:34:21;96724.91;;;22.18;100.00
56944;BME280;42848;42.524;12.052;2023-05-25T10:36:47;96717.00;;;22.09;100.00
56944;BME280;42848;42.524;12.052;2023-05-25T10:39:13;96730.44;;;22.07;100.00
56944;BME280;42848;42.524;12.052;2023-05-25T10:41:40;96732.78;;;22.05;97.10
56944;BME280;42848;42.524;12.052;2023-05-25T10:44:07;96739.09;;;21.95;97.65
56944;BME280;42848;42.524;12.052;2023-05-25T10:46:34;96736.69;;;21.93;100.00
56944;BME280;42848;42.524;12.052;2023-05-25T10:49:00;96732.75;;;21.98;100.00
56944;BME280;42848;42.524;12.052;2023-05-25T10:51:41;96739.09;;;22.05;100.00
56944;BME280;42848;42.524;12.052;2023-05-25T10:54:12;96735.50;;;21.94;100.00
56944;BME280;42848;42.524;12.052;2023-05-25T10:57:12;96735.13;;;22.03;94.73
56944;BME280;42848;42.524;12.052;2023-05-25T10:59:42;96736.75;;;22.14;97.29
56944;BME280;42848;42.524;12.052;2023-05-25T11:02:14;96728.81;;;22.06;83.89
56944;BME280;42848;42.524;12.052;2023-05-25T11:04:39;96728.41;;;21.93;89.85
56944;BME280;42848;42.524;12.052;2023-05-25T11:07:07;96739.50;;;22.04;85.77
56944;BME280;42848;42.524;12.052;2023-05-25T11:09:40;96738.69;;;21.85;95.23
56944;BME280;42848;42.524;12.052;2023-05-25T11:12:18;96735.91;;;21.85;100.00
56944;BME280;42848;42.524;12.052;2023-05-25T11:15:08;96727.22;;;21.76;96.22
56944;BME280;42848;42.524;12.052;2023-05-25T11:17:44;96728.38;;;21.75;97.39
56944;BME280;42848;42.524;12.052;2023-05-25T11:20:21;96721.69;;;21.73;99.70
56944;BME280;42848;42.524;12.052;2023-05-25T11:22:50;96731.56;;;21.70;100.00
56944;BME280;42848;42.524;12.052;2023-05-25T11:28:03;96729.97;;;21.69;100.00
56944;BME280;42848;42.524;12.052;2023-05-25T11:30:29;96723.63;;;21.65;98.68
56944;BME280;42848;42.524;12.052;2023-05-25T11:32:56;96717.31;;;21.75;97.90
56944;BME280;42848;42.524;12.052;2023-05-25T11:35:25;96723.28;;;21.77;100.00
56944;BME280;42848;42.524;12.052;2023-05-25T11:37:53;96715.00;;;22.09;100.00
56944;BME280;42848;42.524;12.052;2023-05-25T11:40:22;96715.41;;;22.29;100.00
56944;BME280;42848;42.524;12.052;2023-05-25T11:42:50;96715.41;;;22.29;94.05
56944;BME280;42848;42.524;12.052;2023-05-25T11:45:17;96708.66;;;22.59;98.29
56944;BME280;42848;42.524;12.052;2023-05-25T11:47:46;96713.00;;;22.38;86.99
56944;BME280;42848;42.524;12.052;2023-05-25T11:50:15;96709.84;;;22.43;83.44
56944;BME280;42848;42.524;12.052;2023-05-25T11:52:43;96704.63;;;22.88;88.97
56944;BME280;42848;42.524;12.052;2023-05-25T11:55:12;96702.25;;;22.83;85.91
56944;BME280;42848;42.524;12.052;2023-05-25T11:57:38;96701.47;;;22.79;82.17
56944;BME280;42848;42.524;12.052;2023-05-25T12:00:06;96703.44;;;22.89;70.93
56944;BME280;42848;42.524;12.052;2023-05-25T12:02:40;96702.22;;;22.94;78.09
56944;BME280;42848;42.524;12.052;2023-05-25T12:05:08;96693.94;;;22.83;67.71
56944;BME280;42848;42.524;12.052;2023-05-25T12:07:42;96700.22;;;23.02;69.82
56944;BME280;42848;42.524;12.052;2023-05-25T12:10:09;96693.06;;;23.15;74.73
56944;BME280;42848;42.524;12.052;2023-05-25T12:12:50;96682.28;;;23.31;77.14
56944;BME280;42848;42.524;12.052;2023-05-25T12:15:20;96680.34;;;23.21;75.52
56944;BME280;42848;42.524;12.052;2023-05-25T12:17:47;96678.31;;;23.36;79.76
56944;BME280;42848;42.524;12.052;2023-05-25T12:20:15;96676.69;;;23.38;78.46
56944;BME280;42848;42.524;12.052;2023-05-25T12:22:42;96673.78;;;23.67;81.62
56944;BME280;42848;42.524;12.052;2023-05-25T12:25:12;96666.66;;;23.66;76.52
56944;BME280;42848;42.524;12.052;2023-05-25T12:27:38;96656.13;;;23.95;77.49
56944;BME280;42848;42.524;12.052;2023-05-25T12:30:07;96659.44;;;23.79;80.34
56944;BME280;42848;42.524;12.052;2023-05-25T12:32:34;96656.22;;;23.88;76.35
56944;BME280;42848;42.524;12.052;2023-05-25T12:35:02;96657.09;;;23.74;72.25
56944;BME280;42848;42.524;12.052;2023-05-25T12:37:28;96653.34;;;23.39;73.11
56944;BME280;42848;42.524;12.052;2023-05-25T12:39:54;96659.34;;;23.90;76.40
56944;BME280;42848;42.524;12.052;2023-05-25T12:42:19;96657.00;;;23.88;79.25
56944;BME280;42848;42.524;12.052;2023-05-25T12:44:45;96666.66;;;23.66;79.13
56944;BME280;42848;42.524;12.052;2023-05-25T12:47:21;96670.25;;;23.63;66.70
56944;BME280;42848;42.524;12.052;2023-05-25T12:50:14;96680.44;;;24.25;75.27